SAS1778 EKVG-EKCH
Flight info
| Callsign | SAS1778 |
|---|---|
| Flight time | N/A |
| Altitude | 37000 |
| Route | ODEVA DCT RIXUN/N0443F370 DCT PEPIN DCT TESPI |
| Aircraft | A320/M-SDE3FGHIRWY/LB1 |
Departure
| Time | N/A |
|---|---|
| Airport | Vágar Airport (EKVG) |
Arrival
| Time | 2026-05-06 08:42 |
|---|---|
| Airport | Copenhagen Kastrup Airport (EKCH) |
| Time | Latitude | Longitude | Altitude | Speed | Heading |
|---|---|---|---|---|---|
| 2026-05-06 08:21 | 55.88912 | 10.60647 | 23969 ft | 389 kts | 106° |
| 2026-05-06 08:21 | 55.88355 | 10.65353 | 23518 ft | 388 kts | 106° |
| 2026-05-06 08:22 | 55.87791 | 10.70048 | 23028 ft | 387 kts | 106° |
| 2026-05-06 08:22 | 55.87225 | 10.74705 | 22583 ft | 383 kts | 106° |
| 2026-05-06 08:22 | 55.86659 | 10.79332 | 22130 ft | 381 kts | 106° |
| 2026-05-06 08:22 | 55.86095 | 10.83921 | 21678 ft | 379 kts | 106° |
| 2026-05-06 08:23 | 55.85538 | 10.88429 | 21236 ft | 377 kts | 106° |
| 2026-05-06 08:23 | 55.84967 | 10.93022 | 20785 ft | 374 kts | 106° |
| 2026-05-06 08:23 | 55.84370 | 10.97517 | 20356 ft | 372 kts | 107° |
| 2026-05-06 08:23 | 55.83739 | 11.01900 | 19933 ft | 369 kts | 108° |
| 2026-05-06 08:24 | 55.83077 | 11.06306 | 19503 ft | 368 kts | 108° |
| 2026-05-06 08:24 | 55.82411 | 11.10684 | 19069 ft | 366 kts | 108° |
| 2026-05-06 08:24 | 55.81749 | 11.15041 | 18645 ft | 365 kts | 108° |
| 2026-05-06 08:24 | 55.81094 | 11.19389 | 18208 ft | 363 kts | 108° |
| 2026-05-06 08:25 | 55.80442 | 11.23720 | 17741 ft | 361 kts | 108° |
| 2026-05-06 08:25 | 55.79796 | 11.28013 | 17328 ft | 358 kts | 107° |
| 2026-05-06 08:25 | 55.79154 | 11.32274 | 16888 ft | 355 kts | 107° |
| 2026-05-06 08:25 | 55.78523 | 11.36476 | 16642 ft | 347 kts | 107° |
| 2026-05-06 08:26 | 55.77911 | 11.40574 | 16343 ft | 341 kts | 107° |
| 2026-05-06 08:26 | 55.77355 | 11.44655 | 15990 ft | 340 kts | 101° |
| 2026-05-06 08:26 | 55.77033 | 11.48795 | 15630 ft | 337 kts | 99° |
| 2026-05-06 08:26 | 55.76715 | 11.52903 | 15271 ft | 335 kts | 99° |
| 2026-05-06 08:27 | 55.76393 | 11.56978 | 14910 ft | 332 kts | 99° |
| 2026-05-06 08:27 | 55.76069 | 11.61021 | 14567 ft | 330 kts | 99° |
| 2026-05-06 08:27 | 55.75746 | 11.65040 | 14216 ft | 327 kts | 99° |
| 2026-05-06 08:27 | 55.75423 | 11.69026 | 13896 ft | 325 kts | 99° |
| 2026-05-06 08:28 | 55.75103 | 11.72986 | 13542 ft | 323 kts | 99° |
| 2026-05-06 08:28 | 55.74784 | 11.76917 | 13166 ft | 320 kts | 99° |
| 2026-05-06 08:28 | 55.74468 | 11.80818 | 12795 ft | 318 kts | 99° |
| 2026-05-06 08:28 | 55.74154 | 11.84684 | 12423 ft | 316 kts | 99° |
| 2026-05-06 08:29 | 55.73844 | 11.88483 | 12065 ft | 314 kts | 99° |
| 2026-05-06 08:29 | 55.73528 | 11.92345 | 11714 ft | 311 kts | 99° |
| 2026-05-06 08:29 | 55.73222 | 11.96084 | 11352 ft | 310 kts | 99° |
| 2026-05-06 08:29 | 55.72913 | 11.99853 | 11003 ft | 307 kts | 99° |
| 2026-05-06 08:30 | 55.72608 | 12.03571 | 10413 ft | 303 kts | 99° |
| 2026-05-06 08:30 | 55.72304 | 12.07247 | 9760 ft | 300 kts | 99° |
| 2026-05-06 08:30 | 55.71997 | 12.10900 | 9050 ft | 298 kts | 98° |
| 2026-05-06 08:30 | 55.71692 | 12.14484 | 8544 ft | 290 kts | 98° |
| 2026-05-06 08:31 | 55.71396 | 12.17942 | 8204 ft | 280 kts | 98° |
| 2026-05-06 08:31 | 55.70976 | 12.21301 | 7857 ft | 279 kts | 109° |
| 2026-05-06 08:31 | 55.70104 | 12.24366 | 7492 ft | 280 kts | 124° |
| 2026-05-06 08:31 | 55.68814 | 12.26956 | 7114 ft | 281 kts | 138° |
| 2026-05-06 08:32 | 55.67327 | 12.29198 | 6792 ft | 279 kts | 138° |
| 2026-05-06 08:32 | 55.65849 | 12.31425 | 6411 ft | 280 kts | 138° |
| 2026-05-06 08:32 | 55.64407 | 12.33600 | 6248 ft | 266 kts | 138° |
| 2026-05-06 08:32 | 55.63025 | 12.35683 | 6030 ft | 255 kts | 139° |
| 2026-05-06 08:33 | 55.61530 | 12.37238 | 5807 ft | 250 kts | 159° |
| 2026-05-06 08:33 | 55.59812 | 12.37683 | 5527 ft | 253 kts | 181° |
| 2026-05-06 08:33 | 55.58140 | 12.36928 | 5268 ft | 253 kts | 205° |
| 2026-05-06 08:33 | 55.56719 | 12.35121 | 5010 ft | 251 kts | 220° |
| 2026-05-06 08:34 | 55.55415 | 12.33100 | 4753 ft | 248 kts | 220° |
| 2026-05-06 08:34 | 55.52857 | 12.29174 | 4285 ft | 237 kts | 220° |
| 2026-05-06 08:34 | 55.51613 | 12.27325 | 4123 ft | 231 kts | 212° |
| 2026-05-06 08:35 | 55.50132 | 12.26355 | 4031 ft | 226 kts | 181° |
| 2026-05-06 08:35 | 55.48613 | 12.26762 | 3882 ft | 220 kts | 152° |
| 2026-05-06 08:35 | 55.47431 | 12.28319 | 3712 ft | 208 kts | 127° |
| 2026-05-06 08:35 | 55.46500 | 12.30235 | 3531 ft | 205 kts | 127° |
| 2026-05-06 08:36 | 55.45571 | 12.32121 | 3366 ft | 203 kts | 127° |
| 2026-05-06 08:36 | 55.44808 | 12.34148 | 3202 ft | 196 kts | 106° |
| 2026-05-06 08:36 | 55.44669 | 12.36448 | 3072 ft | 185 kts | 79° |
| 2026-05-06 08:36 | 55.45124 | 12.38501 | 2992 ft | 179 kts | 54° |
| 2026-05-06 08:37 | 55.45995 | 12.40040 | 2993 ft | 177 kts | 42° |
| 2026-05-06 08:37 | 55.46928 | 12.41465 | 2995 ft | 178 kts | 43° |
| 2026-05-06 08:37 | 55.47862 | 12.42893 | 2949 ft | 178 kts | 42° |
| 2026-05-06 08:37 | 55.48793 | 12.44318 | 2812 ft | 177 kts | 43° |
| 2026-05-06 08:38 | 55.49717 | 12.45734 | 2556 ft | 175 kts | 43° |
| 2026-05-06 08:38 | 55.50633 | 12.47138 | 2317 ft | 174 kts | 42° |
| 2026-05-06 08:38 | 55.51536 | 12.48524 | 2077 ft | 169 kts | 42° |
| 2026-05-06 08:38 | 55.52382 | 12.49823 | 1860 ft | 155 kts | 43° |
| 2026-05-06 08:39 | 55.53181 | 12.51050 | 1670 ft | 151 kts | 43° |
| 2026-05-06 08:39 | 55.53969 | 12.52264 | 1452 ft | 150 kts | 43° |
| 2026-05-06 08:39 | 55.54748 | 12.53480 | 1233 ft | 146 kts | 43° |
| 2026-05-06 08:39 | 55.55470 | 12.54579 | 1035 ft | 130 kts | 42° |
| 2026-05-06 08:40 | 55.56153 | 12.55617 | 850 ft | 129 kts | 41° |
| 2026-05-06 08:40 | 55.56807 | 12.56628 | 692 ft | 126 kts | 41° |
| 2026-05-06 08:40 | 55.57468 | 12.57647 | 535 ft | 126 kts | 40° |
| 2026-05-06 08:40 | 55.58130 | 12.58671 | 332 ft | 126 kts | 39° |
| 2026-05-06 08:41 | 55.58792 | 12.59689 | 170 ft | 125 kts | 39° |
| 2026-05-06 08:41 | 55.59431 | 12.60673 | 30 ft | 115 kts | 39° |
| 2026-05-06 08:41 | 55.59923 | 12.61434 | 24 ft | 70 kts | 41° |
| 2026-05-06 08:41 | 55.60209 | 12.61879 | 25 ft | 50 kts | 41° |
| 2026-05-06 08:42 | 55.60416 | 12.62199 | 24 ft | 25 kts | 39° |
| 2026-05-06 08:42 | 55.60569 | 12.62318 | 28 ft | 24 kts | 15° |
| 2026-05-06 08:42 | 55.60691 | 12.62365 | 25 ft | 11 kts | 11° |
| 2026-05-06 08:42 | 55.60779 | 12.62404 | 24 ft | 15 kts | 17° |
| 2026-05-06 08:43 | 55.60871 | 12.62518 | 24 ft | 18 kts | 44° |
| 2026-05-06 08:43 | 55.60972 | 12.62679 | 24 ft | 21 kts | 41° |
| 2026-05-06 08:43 | 55.61091 | 12.62861 | 24 ft | 24 kts | 40° |
| 2026-05-06 08:43 | 55.61212 | 12.63047 | 24 ft | 24 kts | 41° |
| 2026-05-06 08:44 | 55.61327 | 12.63226 | 25 ft | 22 kts | 42° |
| 2026-05-06 08:44 | 55.61450 | 12.63416 | 24 ft | 25 kts | 41° |
| 2026-05-06 08:44 | 55.61586 | 12.63629 | 24 ft | 27 kts | 41° |
| 2026-05-06 08:44 | 55.61704 | 12.63810 | 25 ft | 21 kts | 40° |
| 2026-05-06 08:45 | 55.61817 | 12.63986 | 24 ft | 22 kts | 41° |
| 2026-05-06 08:45 | 55.61937 | 12.64121 | 25 ft | 21 kts | 23° |
| 2026-05-06 08:45 | 55.62061 | 12.64229 | 24 ft | 19 kts | 26° |
| 2026-05-06 08:45 | 55.62190 | 12.64337 | 22 ft | 23 kts | 25° |
| 2026-05-06 08:46 | 55.62334 | 12.64421 | 26 ft | 19 kts | 15° |
| 2026-05-06 08:46 | 55.62450 | 12.64477 | 24 ft | 14 kts | 15° |
| 2026-05-06 08:46 | 55.62519 | 12.64421 | 24 ft | 14 kts | 301° |
| 2026-05-06 08:46 | 55.62575 | 12.64275 | 24 ft | 13 kts | 308° |
| 2026-05-06 08:47 | 55.62631 | 12.64285 | 24 ft | 10 kts | 28° |
| 2026-05-06 08:47 | 55.62681 | 12.64325 | 24 ft | 5 kts | 31° |
| 2026-05-06 08:47 | 55.62679 | 12.64388 | 24 ft | 6 kts | 101° |
| 2026-05-06 08:47 | 55.62673 | 12.64443 | 26 ft | 0 kts | 102° |